Latest Weather Observations for Dalby

IDQ60801

Issued at 2:05 pm EST Tuesday 23 September 2014 (issued every 30 minutes, with the page automatically refreshed every 10 minutes)

About weather observations | Map of weather stations | Latest weather observations for QLD | Other Formats
Station Details ID: 041522 Name: DALBY AIRPORT Lat: -27.16 Lon: 151.26 Height: 343.9 m
Data from the previous 72 hours. | See also: Recent months at Dalby
Date/Time
EST
Temp
°C
App
Temp
°C
Dew
Point
Rel
Hum
%
Delta-T
°C
Wind Press
QNH
hPa
Press
MSL
hPa
Rain
since 9 am
mm
Dir
 
Spd
km/h
Gust
km/h
Spd
kts
Gust
kts
23/02:00pm 22.8 16.5 5.7 33 8.7 ENE 28 32 15 17 1023.8 1023.1 0.0
23/01:30pm 23.0 17.0 7.1 36 8.3 E 28 39 15 21 1024.3 1023.5 0.0
23/01:00pm 22.7 16.8 6.0 34 8.6 ENE 26 35 14 19 1024.9 1024.1 0.0
23/12:30pm 22.2 15.3 6.4 36 8.2 E 32 43 17 23 1025.4 1024.6 0.0
23/12:00pm 21.9 15.2 7.3 39 7.6 E 32 43 17 23 1025.8 1025.0 0.0
23/11:30am 21.4 14.8 7.6 41 7.3 E 32 43 17 23 1026.3 1025.6 0.0
23/11:00am 21.6 16.0 8.8 44 6.9 ENE 28 43 15 23 1026.8 1026.1 0.0
23/10:30am 19.4 13.6 9.6 53 5.3 ESE 30 41 16 22 1027.3 1026.5 0.0
23/10:00am 18.7 12.3 8.7 52 5.3 E 32 43 17 23 1027.7 1026.9 0.0
23/09:30am 18.9 13.2 9.9 56 4.9 E 30 41 16 22 1027.9 1027.1 0.0
23/09:00am 18.7 12.9 10.8 60 4.3 E 32 43 17 23 1028.0 1027.2 0.0
23/08:30am 17.1 12.0 9.3 60 4.1 E 26 35 14 19 1027.9 1027.1 0.0
23/08:00am 15.8 10.8 9.7 67 3.2 ESE 26 30 14 16 1028.0 1027.2 0.0
23/07:30am 14.9 10.9 10.3 74 2.5 E 22 28 12 15 1027.8 1027.0 0.0
23/07:00am 14.1 9.9 9.7 75 2.3 E 22 28 12 15 1027.5 1026.7 0.0
23/06:30am 13.7 10.1 9.9 78 2.0 ESE 19 24 10 13 1027.1 1026.3 0.0
23/06:00am 13.5 10.3 10.1 80 1.8 ESE 17 20 9 11 1026.7 1026.0 0.0
23/05:30am 13.2 10.8 10.2 82 1.6 E 13 15 7 8 1026.6 1025.9 0.0
23/05:00am 13.2 10.1 10.2 82 1.6 ESE 17 20 9 11 1026.1 1025.4 0.0
23/04:30am 13.1 10.0 10.3 83 1.5 ESE 17 20 9 11 1025.9 1025.1 0.0
23/04:00am 13.1 10.0 10.3 83 1.5 ESE 17 20 9 11 1025.8 1025.0 0.0
23/03:30am 12.8 9.3 10.2 84 1.4 ESE 19 24 10 13 1025.6 1024.8 0.0
23/03:00am 13.1 9.4 10.3 83 1.5 ESE 20 24 11 13 1025.8 1025.0 0.0
23/02:30am 13.0 9.9 10.2 83 1.5 ESE 17 20 9 11 1026.0 1025.3 0.0
23/02:00am 13.3 9.6 10.3 82 1.6 ESE 20 24 11 13 1026.1 1025.4 0.0
23/01:30am 13.5 9.1 10.3 81 1.7 ESE 24 33 13 18 1026.4 1025.7 0.0
23/01:00am 13.2 9.6 10.4 83 1.5 SE 20 26 11 14 1026.7 1026.0 0.0
23/12:30am 13.2 10.1 10.4 83 1.5 SE 17 20 9 11 1027.2 1026.4 0.0
23/12:00am 13.4 10.7 10.4 82 1.6 ESE 15 19 8 10 1027.6 1026.8 0.0
 
Date/Time
EST
Temp
°C
App
Temp
°C
Dew
Point
Rel
Hum
%
Delta-T
°C
Wind Press
QNH
hPa
Press
MSL
hPa
Rain
since 9 am
mm
Dir
 
Spd
km/h
Gust
km/h
Spd
kts
Gust
kts
22/11:30pm 13.7 10.3 10.5 81 1.7 ESE 19 22 10 12 1027.7 1026.9 0.0
22/11:00pm 13.9 10.9 10.5 80 1.8 ESE 17 22 9 12 1027.5 1026.7 0.0
22/10:30pm 14.1 11.0 10.3 78 2.0 ESE 17 22 9 12 1027.8 1027.0 0.0
22/10:00pm 13.9 10.4 10.1 78 2.0 ESE 19 24 10 13 1027.8 1027.0 0.0
22/09:30pm 13.8 11.6 9.5 75 2.2 SE 11 15 6 8 1027.8 1027.0 0.0
22/09:00pm 13.4 11.2 9.3 76 2.1 ESE 11 13 6 7 1027.6 1026.8 0.0
22/08:30pm 13.8 11.1 8.8 72 2.6 E 13 15 7 8 1027.4 1026.6 0.0
22/08:00pm 14.4 11.2 8.6 68 3.0 E 15 20 8 11 1026.9 1026.2 0.0
22/07:30pm 15.3 11.7 8.5 64 3.5 E 17 22 9 12 1026.7 1026.0 0.0
22/07:00pm 15.7 10.7 8.0 60 3.9 E 24 32 13 17 1026.0 1025.3 0.0
22/06:30pm 15.9 10.9 8.2 60 3.9 E 24 30 13 16 1025.6 1024.8 0.0
22/06:00pm 16.6 12.0 8.3 58 4.3 E 22 28 12 15 1025.2 1024.4 0.0
22/05:30pm 17.4 13.8 8.3 55 4.7 E 17 24 9 13 1024.9 1024.1 0.0
22/05:00pm 18.1 13.4 7.8 51 5.3 E 22 30 12 16 1024.9 1024.1 0.0
22/04:30pm 18.8 15.0 9.8 56 4.9 ENE 20 28 11 15 1024.7 1023.9 0.0
22/04:00pm 19.1 14.1 9.6 54 5.1 ENE 26 35 14 19 1024.5 1023.7 0.0
22/03:30pm 19.9 14.3 8.6 48 6.0 E 28 33 15 18 1024.1 1023.3 0.0
22/03:00pm 20.0 14.5 9.0 49 5.9 E 28 35 15 19 1024.1 1023.3 0.0
22/02:30pm 19.1 14.2 10.1 56 4.9 ESE 26 35 14 19 1024.3 1023.5 0.0
22/02:00pm 19.0 13.1 8.9 52 5.3 ESE 30 39 16 21 1024.5 1023.7 0.0
22/01:30pm 19.2 13.9 9.9 55 5.0 ESE 28 37 15 20 1024.9 1024.1 0.0
22/01:00pm 19.8 14.5 10.0 53 5.3 E 28 39 15 21 1025.2 1024.4 0.0
22/12:30pm 18.9 14.7 8.3 50 5.6 E 20 28 11 15 1025.8 1025.0 0.0
22/12:00pm 18.6 13.7 8.3 51 5.4 E 24 32 13 17 1026.1 1025.4 0.0
22/11:30am 18.2 12.4 7.9 51 5.3 E 28 35 15 19 1026.5 1025.8 0.0
22/11:00am 18.0 11.7 9.1 56 4.7 ESE 32 39 17 21 1026.9 1026.2 0.0
22/10:30am 17.5 11.5 8.6 56 4.7 E 30 35 16 19 1027.3 1026.5 0.0
22/10:00am 17.3 11.7 10.2 63 3.8 E 30 39 16 21 1027.6 1026.8 0.0
22/09:30am 17.0 12.3 10.8 67 3.4 E 26 33 14 18 1027.6 1026.8 0.0
22/09:00am 16.6 10.8 10.9 69 3.1 E 32 37 17 20 1027.2 1026.4 19.8
22/08:30am 15.0 11.9 11.6 80 1.9 ESE 19 24 10 13 1027.2 1026.4 19.8
22/08:00am 13.9 10.3 10.5 80 1.8 SE 20 24 11 13 1027.1 1026.3 19.8
22/07:30am 13.5 9.9 10.7 83 1.5 SE 20 28 11 15 1026.8 1026.1 19.8
22/07:00am 13.0 9.4 10.4 84 1.4 SE 20 26 11 14 1026.3 1025.6 19.8
22/06:30am 12.8 9.3 10.3 85 1.3 SE 19 22 10 12 1025.8 1025.0 19.8
22/06:00am 12.7 10.4 10.4 86 1.2 SSE 13 17 7 9 1025.4 1024.6 19.8
22/05:30am 12.7 10.4 10.4 86 1.2 SSE 13 17 7 9 1025.4 1024.6 19.8
22/05:00am 12.7 10.4 10.6 87 1.1 SE 13 17 7 9 1025.2 1024.4 19.8
22/04:30am 12.7 10.8 10.6 87 1.1 SE 11 15 6 8 1025.1 1024.3 19.8
22/04:00am 12.6 10.4 10.7 88 1.0 ESE 13 17 7 9 1024.8 1024.0 19.8
22/03:30am 12.8 9.8 10.7 87 1.1 ESE 17 22 9 12 1024.6 1023.8 19.8
22/03:00am 12.7 9.4 10.8 88 1.0 E 19 24 10 13 1024.8 1024.0 19.8
22/02:30am 12.7 8.0 10.8 88 1.0 ESE 26 32 14 17 1024.7 1023.9 19.8
22/02:00am 12.8 8.6 11.0 89 1.0 ESE 24 35 13 19 1024.9 1024.1 19.8
22/01:30am 13.0 9.2 11.2 89 1.0 ESE 22 28 12 15 1025.4 1024.6 19.8
22/01:00am 12.9 10.1 11.3 90 0.9 ESE 17 20 9 11 1025.9 1025.1 19.8
22/12:30am 12.9 10.9 11.5 91 0.8 ESE 13 17 7 9 1026.3 1025.6 19.8
22/12:00am 13.0 11.8 11.7 92 0.7 SE 9 13 5 7 1026.7 1026.0 19.8
 
Date/Time
EST
Temp
°C
App
Temp
°C
Dew
Point
Rel
Hum
%
Delta-T
°C
Wind Press
QNH
hPa
Press
MSL
hPa
Rain
since 9 am
mm
Dir
 
Spd
km/h
Gust
km/h
Spd
kts
Gust
kts
21/11:30pm 13.0 11.9 11.9 93 0.6 SSE 9 11 5 6 1027.1 1026.3 19.8
21/11:00pm 13.0 11.9 11.9 93 0.6 S 9 13 5 7 1027.3 1026.5 19.8
21/10:30pm 13.1 13.3 11.8 92 0.7 S 2 6 1 3 1027.3 1026.5 19.8
21/10:00pm 13.0 12.2 11.7 92 0.7 SE 7 9 4 5 1027.1 1026.3 19.8
21/09:30pm 13.0 13.1 11.6 91 0.8 S 2 15 1 8 1027.3 1026.5 19.6
21/09:00pm 12.9 13.4 11.6 92 0.7 CALM 0 0 0 0 1027.3 1026.5 19.6
21/08:30pm 13.0 12.3 11.9 93 0.6 S 7 11 4 6 1027.3 1026.5 18.6
21/08:00pm 13.4 12.4 12.3 93 0.6 SSW 9 15 5 8 1026.8 1026.1 15.8
21/07:30pm 13.3 12.6 12.0 92 0.7 SSE 7 11 4 6 1026.5 1025.8 14.0
21/07:00pm 13.6 11.4 12.2 91 0.8 S 15 20 8 11 1026.1 1025.4 11.8
21/06:30pm 13.8 13.2 12.4 91 0.8 WSW 7 9 4 5 1025.3 1024.5 8.8
21/06:00pm 13.8 12.5 12.4 91 0.8 NW 11 11 6 6 1024.7 1023.9 8.4
21/05:30pm 13.8 12.5 12.4 91 0.8 NW 11 15 6 8 1024.5 1023.7 7.4
21/05:00pm 13.9 11.8 12.5 91 0.8 W 15 17 8 9 1023.9 1023.2 6.8
21/04:30pm 14.2 11.8 12.6 90 0.9 W 17 20 9 11 1023.7 1023.0 6.0
21/04:00pm 14.4 14.2 11.9 85 1.4 S 4 7 2 4 1023.5 1022.8 5.4
21/03:30pm 14.6 13.2 12.1 85 1.4 SE 11 15 6 8 1023.4 1022.6 4.4
21/03:00pm 15.0 13.2 12.0 82 1.6 SE 13 17 7 9 1023.4 1022.6 4.2
21/02:30pm 14.9 13.1 12.2 84 1.5 S 13 15 7 8 1023.5 1022.8 4.0
21/02:00pm 14.7 12.5 12.0 84 1.5 SSE 15 20 8 11 1023.7 1023.0 3.0
21/01:30pm 16.4 13.8 9.3 63 3.7 NE 13 20 7 11 1023.7 1023.0 0.8
21/01:00pm 19.5 15.0 6.3 42 6.7 ENE 19 24 10 13 1023.1 1022.3 0.0
21/12:30pm 20.0 14.4 5.6 39 7.2 ENE 24 35 13 19 1023.2 1022.4 0.0
21/12:00pm 20.2 13.8 5.4 38 7.4 ENE 28 37 15 20 1023.4 1022.6 0.0
21/11:30am 20.4 13.4 6.0 39 7.3 ENE 32 43 17 23 1023.9 1023.2 0.0
21/11:19am 21.7 15.2 6.4 37 7.9 E 30 50 16 27 1023.9 1023.2 0.0
21/11:00am 20.4 13.0 6.7 41 7.0 E 35 43 19 23 1024.3 1023.5 0.0
21/10:30am 18.7 12.2 6.5 45 6.2 ENE 30 37 16 20 1025.0 1024.2 0.0
21/10:00am 19.0 12.2 6.8 45 6.2 E 32 41 17 22 1025.2 1024.4 0.0
21/09:30am 19.2 11.4 6.7 44 6.4 ENE 37 46 20 25 1025.1 1024.3 0.0
21/09:00am 18.2 10.9 7.0 48 5.7 E 35 44 19 24 1025.0 1024.2 0.0
21/08:30am 17.1 9.0 6.9 51 5.2 E 39 52 21 28 1025.2 1024.4 0.0
21/08:00am 17.0 10.1 7.4 53 4.9 E 33 44 18 24 1025.1 1024.3 0.0
21/07:30am 15.9 10.8 7.7 58 4.2 E 24 32 13 17 1025.3 1024.5 0.0
21/07:00am 15.1 11.3 7.6 61 3.8 ESE 17 22 9 12 1025.2 1024.4 0.0
21/06:30am 13.6 9.8 7.6 67 3.0 ESE 17 20 9 11 1024.4 1023.6 0.0
21/06:00am 13.4 9.2 7.4 67 3.0 ESE 19 24 10 13 1023.8 1023.1 0.0
21/05:30am 13.6 9.9 7.8 68 2.9 E 17 20 9 11 1023.6 1022.9 0.0
21/05:00am 14.0 9.8 8.2 68 2.9 E 20 26 11 14 1023.2 1022.4 0.0
21/04:30am 14.0 8.7 8.4 69 2.9 ESE 26 35 14 19 1022.8 1022.0 0.0
21/04:00am 13.8 9.7 8.6 71 2.6 E 20 26 11 14 1022.9 1022.1 0.0
21/03:30am 13.8 9.9 8.6 71 2.7 E 19 28 10 15 1022.5 1021.7 0.0
21/03:00am 14.4 10.3 8.8 69 2.9 E 20 26 11 14 1022.7 1021.9 0.0
21/02:30am 14.5 9.7 8.7 68 3.0 E 24 30 13 16 1022.9 1022.1 0.0
21/02:00am 14.7 10.2 8.6 67 3.1 E 22 28 12 15 1023.0 1022.2 0.0
21/01:30am 14.9 9.3 8.6 66 3.2 E 28 39 15 21 1023.1 1022.3 0.0
21/01:00am 15.2 10.0 8.9 66 3.3 E 26 35 14 19 1023.7 1023.0 0.0
21/12:30am 14.8 11.0 9.2 69 2.9 ESE 19 22 10 12 1023.6 1022.9 0.0
21/12:00am 15.3 10.7 9.7 69 2.9 E 24 30 13 16 1023.2 1022.4 0.0
 
Date/Time
EST
Temp
°C
App
Temp
°C
Dew
Point
Rel
Hum
%
Delta-T
°C
Wind Press
QNH
hPa
Press
MSL
hPa
Rain
since 9 am
mm
Dir
 
Spd
km/h
Gust
km/h
Spd
kts
Gust
kts
20/11:30pm 15.5 11.5 10.3 71 2.8 E 22 30 12 16 1023.4 1022.6 0.0
20/11:00pm 15.9 11.6 10.7 71 2.8 E 24 30 13 16 1023.2 1022.4 0.0
20/10:30pm 15.9 11.6 10.7 71 2.8 E 24 32 13 17 1023.3 1022.5 0.0
20/10:00pm 16.3 10.8 10.6 69 3.1 E 30 39 16 21 1023.1 1022.3 0.0
20/09:30pm 15.9 12.7 11.3 74 2.5 E 19 24 10 13 1023.0 1022.2 0.0
20/09:00pm 16.2 12.7 10.9 71 2.9 E 20 26 11 14 1022.8 1022.0 0.0
20/08:30pm 16.8 12.3 11.3 70 3.0 E 26 33 14 18 1022.2 1021.4 0.0
20/08:00pm 17.3 13.8 10.9 66 3.5 E 20 26 11 14 1021.8 1021.0 0.0
20/07:30pm 18.7 17.0 10.0 57 4.7 ENE 9 15 5 8 1021.3 1020.5 0.0
20/07:00pm 20.1 16.8 6.4 41 7.0 SSE 13 20 7 11 1020.4 1019.6 0.0
20/06:30pm 18.7 14.9 -3.4 22 9.2 SSE 7 9 4 5 1019.2 1018.4 0.0
20/06:00pm 22.3 18.1 -3.9 17 11.1 SSE 9 13 5 7 1018.6 1017.8 0.0
20/05:30pm 23.9 20.1 -5.2 14 12.2 S 6 13 3 7 1018.2 1017.3 0.0
20/05:00pm 24.3 20.0 -4.9 14 12.4 E 9 20 5 11 1017.6 1016.8 0.0
20/04:30pm 25.1 20.5 -4.2 14 12.7 WSW 11 20 6 11 1017.2 1016.4 0.0
20/04:00pm 25.1 20.8 -5.2 13 12.9 SW 9 20 5 11 1017.1 1016.3 0.0
20/03:30pm 25.0 20.3 -5.3 13 12.9 W 11 17 6 9 1016.9 1016.1 0.0
20/03:00pm 26.0 19.8 -3.5 14 13.0 WSW 20 28 11 15 1017.0 1016.2 0.0
20/02:30pm 24.4 18.6 -4.8 14 12.4 S 17 24 9 13 1017.0 1016.2 0.0

Other Formats:

Comma delimited format used in spreadsheet applications
http://www.bom.gov.au/fwo/IDQ60801/IDQ60801.94542.axf

JavaScript Object Notation format (JSON) in row-major order
http://www.bom.gov.au/fwo/IDQ60801/IDQ60801.94542.json